Time;durP1;ratioP1;P1;durP2;ratioP2;P2;SDS_P1;SDS_P2;PMS_P1;PMS_P2;Temp;Humidity;BMP_temperature;BMP_pressure;BME280_temperature;BME280_humidity;BME280_pressure;Samples;Min_cycle;Max_cycle;Signal;HPM_P1;HPM_P2
2021/05/15 00:02:15;;;;;;;2.97;2.77;;;11.90;99.90;;;;;;5022115;28;20455;-70
2021/05/15 00:04:40;;;;;;;4.00;2.50;;;11.90;99.90;;;;;;5019491;28;20238;-71
2021/05/15 00:07:06;;;;;;;2.90;2.40;;;11.80;99.90;;;;;;5019382;28;20942;-69
2021/05/15 00:09:32;;;;;;;2.33;2.13;;;11.80;99.90;;;;;;5018620;28;20523;-69
2021/05/15 00:11:57;;;;;;;3.03;2.50;;;11.80;99.90;;;;;;5019644;28;20220;-69
2021/05/15 00:14:23;;;;;;;3.80;2.33;;;11.80;99.90;;;;;;5020501;28;20208;-70
2021/05/15 00:16:49;;;;;;;6.07;2.20;;;11.80;99.90;;;;;;5020070;28;20783;-71
2021/05/15 00:19:15;;;;;;;2.80;2.17;;;11.80;99.90;;;;;;5019571;28;20447;-69
2021/05/15 00:21:40;;;;;;;2.50;2.30;;;11.80;99.90;;;;;;5019932;28;20216;-69
2021/05/15 00:24:07;;;;;;;4.30;2.20;;;11.80;99.90;;;;;;5019124;28;20291;-71
2021/05/15 00:26:32;;;;;;;2.20;2.00;;;11.80;99.90;;;;;;5020519;28;20180;-72
2021/05/15 00:28:58;;;;;;;2.47;2.20;;;11.80;99.90;;;;;;5020316;28;21036;-69
2021/05/15 00:31:24;;;;;;;2.67;2.27;;;11.80;99.90;;;;;;5019963;28;20217;-70
2021/05/15 00:33:49;;;;;;;2.13;1.97;;;11.90;99.90;;;;;;5020754;28;20339;-71
2021/05/15 00:36:15;;;;;;;4.57;2.40;;;12.00;99.90;;;;;;5021183;28;20270;-69
2021/05/15 00:38:41;;;;;;;2.70;2.50;;;12.00;99.90;;;;;;5018465;28;20200;-70
2021/05/15 00:41:06;;;;;;;3.50;2.20;;;12.00;99.90;;;;;;5021139;28;20195;-71
2021/05/15 00:43:32;;;;;;;2.23;2.03;;;12.10;99.90;;;;;;5019072;28;20212;-71
2021/05/15 00:45:58;;;;;;;3.03;2.10;;;12.20;99.90;;;;;;5002566;28;20215;-69
2021/05/15 00:48:24;;;;;;;2.13;1.93;;;12.30;99.90;;;;;;5020976;28;20223;-70
2021/05/15 00:50:50;;;;;;;2.87;2.10;;;12.20;99.90;;;;;;5019810;28;20188;-70
2021/05/15 00:53:18;;;;;;;2.10;1.90;;;12.30;99.90;;;;;;5020332;28;21044;-69
2021/05/15 00:55:43;;;;;;;2.27;2.00;;;12.30;99.90;;;;;;5021254;28;20994;-69
2021/05/15 00:58:09;;;;;;;2.30;2.10;;;12.30;99.90;;;;;;5020161;28;20534;-71
2021/05/15 01:00:35;;;;;;;2.20;1.87;;;12.30;99.90;;;;;;5019351;28;20267;-69
2021/05/15 01:03:00;;;;;;;1.97;1.87;;;12.30;99.90;;;;;;5021122;28;20326;-70
2021/05/15 01:05:26;;;;;;;2.63;1.97;;;12.30;99.90;;;;;;5023272;28;20200;-70
2021/05/15 01:07:52;;;;;;;2.73;2.20;;;12.40;99.90;;;;;;5019083;28;20208;-71
2021/05/15 01:10:18;;;;;;;3.60;2.27;;;12.50;99.90;;;;;;5002083;28;20442;-70
2021/05/15 01:12:53;;;;;;;2.40;2.20;;;12.50;99.90;;;;;;5018861;28;20220;-69
2021/05/15 01:15:23;;;;;;;2.20;2.00;;;12.50;99.90;;;;;;5019246;28;20835;-69
2021/05/15 01:17:57;;;;;;;2.20;2.00;;;12.40;99.90;;;;;;5019710;28;20478;-70
2021/05/15 01:20:30;;;;;;;2.50;2.10;;;12.40;99.90;;;;;;5019288;28;20455;-70
2021/05/15 01:22:57;;;;;;;2.10;1.90;;;12.50;99.90;;;;;;5020968;28;20510;-71
2021/05/15 01:25:23;;;;;;;2.47;1.90;;;12.50;99.90;;;;;;5023002;28;20474;-70
2021/05/15 01:27:48;;;;;;;2.07;1.90;;;12.50;99.90;;;;;;5019343;28;20475;-70
2021/05/15 01:30:15;;;;;;;2.97;1.90;;;12.40;99.90;;;;;;5022213;28;20181;-69
2021/05/15 01:32:46;;;;;;;2.00;1.80;;;12.50;99.90;;;;;;5021588;28;20210;-69
2021/05/15 01:35:14;;;;;;;1.80;1.70;;;12.40;99.90;;;;;;5020919;28;21007;-70
2021/05/15 01:37:40;;;;;;;2.70;1.73;;;12.40;99.90;;;;;;5019361;28;20459;-70
2021/05/15 01:40:08;;;;;;;2.37;2.17;;;12.40;99.90;;;;;;5001002;28;20462;-70
2021/05/15 01:42:34;;;;;;;8.20;2.17;;;12.50;99.90;;;;;;5018850;28;20216;-70
2021/05/15 01:45:00;;;;;;;2.33;2.00;;;12.50;99.90;;;;;;5023510;28;20803;-71
2021/05/15 01:47:26;;;;;;;2.97;2.77;;;12.60;99.90;;;;;;5021665;28;20447;-70
2021/05/15 01:49:51;;;;;;;2.43;2.07;;;12.60;99.90;;;;;;5021727;28;20506;-70
2021/05/15 01:52:17;;;;;;;1.93;1.83;;;12.60;99.90;;;;;;5019688;28;20551;-70
2021/05/15 01:54:43;;;;;;;2.60;1.87;;;12.50;99.90;;;;;;5022279;28;20209;-71
2021/05/15 01:57:09;;;;;;;1.90;1.80;;;12.60;99.90;;;;;;5019788;28;20647;-70
2021/05/15 01:59:35;;;;;;;2.17;1.97;;;12.60;99.90;;;;;;5023641;28;20278;-71
2021/05/15 02:02:00;;;;;;;3.97;2.00;;;12.50;99.90;;;;;;5020885;28;21016;-70
2021/05/15 02:04:26;;;;;;;2.37;1.90;;;12.50;99.90;;;;;;5019162;28;20221;-70
2021/05/15 02:06:52;;;;;;;2.13;1.80;;;12.50;99.90;;;;;;5021475;28;20196;-70
2021/05/15 02:09:17;;;;;;;2.10;1.90;;;12.50;99.90;;;;;;5016704;28;20193;-71
2021/05/15 02:11:43;;;;;;;1.70;1.60;;;12.60;99.90;;;;;;5019366;28;20874;-71
2021/05/15 02:14:09;;;;;;;2.60;2.00;;;12.60;99.90;;;;;;5022992;28;20188;-71
2021/05/15 02:16:35;;;;;;;2.20;2.00;;;12.50;99.90;;;;;;5019939;28;20235;-70
2021/05/15 02:19:00;;;;;;;1.80;1.70;;;12.50;99.90;;;;;;5023198;28;20438;-71
2021/05/15 02:21:26;;;;;;;2.00;1.90;;;12.60;99.90;;;;;;5019950;28;20267;-71
2021/05/15 02:23:52;;;;;;;1.90;1.80;;;12.50;99.90;;;;;;5021567;28;20216;-71
2021/05/15 02:26:17;;;;;;;2.27;2.10;;;12.50;99.90;;;;;;5020975;28;20185;-70
2021/05/15 02:28:43;;;;;;;2.60;2.03;;;12.50;99.90;;;;;;5020634;28;20192;-70
2021/05/15 02:31:09;;;;;;;1.90;1.80;;;12.60;99.90;;;;;;5019050;28;20195;-71
2021/05/15 02:33:34;;;;;;;1.90;1.80;;;12.60;99.90;;;;;;5026488;28;20231;-72
2021/05/15 02:36:00;;;;;;;1.80;1.70;;;12.60;99.90;;;;;;5023358;28;20226;-71
2021/05/15 02:38:25;;;;;;;2.63;1.87;;;12.60;99.90;;;;;;5022834;28;20188;-71
2021/05/15 02:40:54;;;;;;;1.90;1.80;;;12.60;99.90;;;;;;5023222;28;20231;-71
2021/05/15 02:43:20;;;;;;;2.73;2.53;;;12.70;99.90;;;;;;5023629;28;20215;-71
2021/05/15 02:45:45;;;;;;;2.40;1.80;;;12.60;99.90;;;;;;5022996;28;20995;-72
2021/05/15 02:48:16;;;;;;;1.63;1.53;;;12.60;99.90;;;;;;5025482;28;20516;-71
2021/05/15 02:50:48;;;;;;;3.37;2.03;;;12.60;99.90;;;;;;5008081;28;20199;-71
2021/05/15 02:53:15;;;;;;;1.80;1.70;;;12.70;99.90;;;;;;5024377;28;20545;-71
2021/05/15 02:55:41;;;;;;;2.07;1.83;;;12.60;99.90;;;;;;5026859;28;20431;-70
2021/05/15 02:58:06;;;;;;;2.17;1.83;;;12.70;99.90;;;;;;5022134;28;20431;-71
2021/05/15 03:00:32;;;;;;;2.30;2.10;;;12.70;99.90;;;;;;5026137;28;20468;-70
2021/05/15 03:02:58;;;;;;;7.40;2.13;;;12.70;99.90;;;;;;5022207;28;20687;-70
2021/05/15 03:05:25;;;;;;;3.83;3.60;;;12.70;99.90;;;;;;5022257;28;20908;-70
2021/05/15 03:07:52;;;;;;;2.90;1.80;;;12.80;99.90;;;;;;5022995;28;20889;-71
2021/05/15 03:10:22;;;;;;;2.20;2.00;;;12.80;99.90;;;;;;5024512;28;20441;-71
2021/05/15 03:12:48;;;;;;;2.63;1.93;;;12.80;99.90;;;;;;5024958;28;20485;-71
2021/05/15 03:15:14;;;;;;;1.87;1.70;;;12.80;99.90;;;;;;5025456;28;20443;-71
2021/05/15 03:17:40;;;;;;;2.13;1.93;;;12.80;99.90;;;;;;5022098;28;20880;-71
2021/05/15 03:20:08;;;;;;;2.10;1.90;;;12.80;99.90;;;;;;5022805;28;20493;-71
2021/05/15 03:22:34;;;;;;;2.00;1.90;;;12.90;99.90;;;;;;5023013;28;20447;-71
2021/05/15 03:25:00;;;;;;;1.93;1.83;;;12.90;99.90;;;;;;5024733;28;20857;-71
2021/05/15 03:27:26;;;;;;;1.83;1.73;;;13.00;99.90;;;;;;5022990;28;20439;-70
2021/05/15 03:29:51;;;;;;;2.43;1.80;;;12.90;99.90;;;;;;5023179;28;20187;-70
2021/05/15 03:32:17;;;;;;;3.40;1.83;;;12.90;99.90;;;;;;5020310;28;20208;-70
2021/05/15 03:34:43;;;;;;;2.00;1.80;;;12.80;99.90;;;;;;5022534;28;20292;-71
2021/05/15 03:37:08;;;;;;;1.77;1.67;;;12.70;99.90;;;;;;5024178;28;20207;-71
2021/05/15 03:39:34;;;;;;;3.20;2.10;;;12.80;99.90;;;;;;5021211;28;20258;-69
2021/05/15 03:42:00;;;;;;;1.90;1.80;;;12.80;99.90;;;;;;5023261;28;20204;-70
2021/05/15 03:44:25;;;;;;;1.87;1.77;;;12.80;99.90;;;;;;5023095;28;20208;-70
2021/05/15 03:46:51;;;;;;;2.03;1.83;;;12.80;99.90;;;;;;5024881;28;20279;-71
2021/05/15 03:49:17;;;;;;;2.23;2.10;;;12.70;99.90;;;;;;5024219;28;20184;-70
2021/05/15 03:51:43;;;;;;;3.73;2.13;;;12.80;99.90;;;;;;5023269;28;20463;-70
2021/05/15 03:54:09;;;;;;;2.10;2.00;;;12.80;99.90;;;;;;5022105;28;20199;-69
2021/05/15 03:56:35;;;;;;;2.37;2.00;;;12.80;99.90;;;;;;5022515;28;20443;-72
2021/05/15 03:59:01;;;;;;;2.23;2.03;;;12.80;99.90;;;;;;5022363;28;20473;-69
2021/05/15 04:01:26;;;;;;;3.93;2.00;;;12.80;99.90;;;;;;5020911;28;20212;-69
2021/05/15 04:03:52;;;;;;;2.20;1.80;;;12.70;99.90;;;;;;5023765;28;20213;-69
2021/05/15 04:06:18;;;;;;;2.53;1.90;;;12.80;99.90;;;;;;5021737;28;20831;-70
2021/05/15 04:08:43;;;;;;;1.90;1.80;;;12.80;99.90;;;;;;5021397;28;20196;-71
2021/05/15 04:11:09;;;;;;;2.33;2.13;;;12.80;99.90;;;;;;5024081;28;20259;-69
2021/05/15 04:18:41;;;;;;;1.93;1.80;;;12.90;99.90;;;;;;5023812;28;20435;-70
2021/05/15 04:21:07;;;;;;;2.40;2.20;;;12.90;99.90;;;;;;5020393;28;20465;-69
2021/05/15 04:23:33;;;;;;;3.60;1.93;;;12.90;99.90;;;;;;5023271;28;20310;-70
2021/05/15 04:26:00;;;;;;;1.67;1.57;;;12.80;99.90;;;;;;5005565;28;20252;-69
2021/05/15 04:28:26;;;;;;;2.30;2.03;;;12.80;99.90;;;;;;5019932;28;20181;-70
2021/05/15 04:30:52;;;;;;;1.83;1.73;;;12.80;99.90;;;;;;5025092;28;20892;-72
2021/05/15 04:33:19;;;;;;;2.63;1.83;;;12.70;99.90;;;;;;5024191;28;20455;-73
2021/05/15 04:35:45;;;;;;;3.63;1.80;;;12.80;99.90;;;;;;5019885;28;20458;-70
2021/05/15 04:38:12;;;;;;;3.47;1.77;;;12.80;99.90;;;;;;5001026;28;21012;-70
2021/05/15 04:40:38;;;;;;;3.57;2.00;;;12.80;99.90;;;;;;5023284;28;20196;-72
2021/05/15 04:43:03;;;;;;;2.80;1.70;;;12.80;99.90;;;;;;5022264;28;20467;-70
2021/05/15 04:45:30;;;;;;;1.90;1.70;;;12.80;99.90;;;;;;5022572;28;20652;-70
2021/05/15 04:47:56;;;;;;;2.00;1.80;;;12.80;99.90;;;;;;5022516;28;20216;-70
2021/05/15 04:50:22;;;;;;;2.40;1.87;;;12.90;99.90;;;;;;5021559;28;20812;-70
2021/05/15 04:52:47;;;;;;;1.97;1.80;;;12.90;99.90;;;;;;5023680;28;20205;-70
2021/05/15 04:55:13;;;;;;;1.97;1.77;;;12.90;99.90;;;;;;5023088;28;20197;-70
2021/05/15 04:57:38;;;;;;;2.00;1.87;;;13.00;99.90;;;;;;5022049;28;20207;-69
2021/05/15 05:00:05;;;;;;;2.90;1.90;;;13.00;99.90;;;;;;5024302;28;20185;-71
2021/05/15 05:02:30;;;;;;;2.20;2.00;;;13.00;99.90;;;;;;5021432;28;20611;-68
2021/05/15 05:04:56;;;;;;;2.20;2.00;;;13.00;99.90;;;;;;5022983;28;20470;-71
2021/05/15 05:07:22;;;;;;;1.93;1.80;;;13.00;99.90;;;;;;5021680;28;20190;-71
2021/05/15 05:09:48;;;;;;;2.43;1.93;;;13.00;99.90;;;;;;5023313;28;20431;-69
2021/05/15 05:12:13;;;;;;;2.00;1.90;;;12.90;99.90;;;;;;5021894;28;20292;-71
2021/05/15 05:14:39;;;;;;;2.33;1.80;;;13.00;99.90;;;;;;5021950;28;20793;-71
2021/05/15 05:17:06;;;;;;;1.90;1.80;;;13.00;99.90;;;;;;5020947;28;20610;-70
2021/05/15 05:19:33;;;;;;;2.10;1.90;;;13.00;99.90;;;;;;5024575;28;20199;-70
2021/05/15 05:22:02;;;;;;;2.17;1.83;;;13.00;99.90;;;;;;5021658;28;20486;-70
2021/05/15 05:24:31;;;;;;;1.77;1.67;;;13.00;99.90;;;;;;5019320;28;20471;-72
2021/05/15 05:26:58;;;;;;;3.50;1.97;;;13.10;99.90;;;;;;5021689;28;20459;-69
2021/05/15 05:29:23;;;;;;;1.90;1.80;;;13.10;99.90;;;;;;5020275;28;20431;-71
2021/05/15 05:31:51;;;;;;;2.57;1.83;;;13.10;99.90;;;;;;5004831;28;20593;-70
2021/05/15 05:34:18;;;;;;;2.10;2.00;;;13.10;99.90;;;;;;5006675;28;20290;-70
2021/05/15 05:36:44;;;;;;;2.83;1.90;;;13.10;99.90;;;;;;5022392;28;20431;-70
2021/05/15 05:39:13;;;;;;;1.73;1.63;;;13.20;99.90;;;;;;5022428;28;20446;-70
2021/05/15 05:41:38;;;;;;;1.93;1.60;;;13.20;99.90;;;;;;5023440;28;20285;-71
2021/05/15 05:44:05;;;;;;;2.50;1.77;;;13.20;99.90;;;;;;5020175;28;20923;-70
2021/05/15 05:46:32;;;;;;;4.43;2.10;;;13.20;99.90;;;;;;5022406;28;20282;-69
2021/05/15 05:48:58;;;;;;;3.63;1.90;;;13.30;99.90;;;;;;5022635;28;21227;-69
2021/05/15 05:51:23;;;;;;;2.10;1.90;;;13.10;99.90;;;;;;5017022;28;20463;-70
2021/05/15 05:53:50;;;;;;;1.93;1.83;;;13.10;99.90;;;;;;5020394;28;21125;-70
2021/05/15 05:56:16;;;;;;;2.00;1.80;;;13.10;99.90;;;;;;5022041;28;20218;-71
2021/05/15 05:58:44;;;;;;;2.00;1.90;;;13.10;99.90;;;;;;5022466;28;20431;-71
2021/05/15 06:01:11;;;;;;;2.80;1.77;;;13.10;99.90;;;;;;5004386;28;20879;-72
2021/05/15 06:03:36;;;;;;;2.40;2.20;;;13.10;99.90;;;;;;5022799;28;20467;-70
2021/05/15 06:06:02;;;;;;;2.00;1.90;;;13.10;99.90;;;;;;5019721;28;20446;-69
2021/05/15 06:08:28;;;;;;;4.57;2.00;;;13.10;99.90;;;;;;5022568;28;20215;-70
2021/05/15 06:10:54;;;;;;;2.30;1.80;;;13.10;99.90;;;;;;5024327;28;20533;-69
2021/05/15 06:13:20;;;;;;;2.23;1.90;;;13.10;99.90;;;;;;5020874;28;20283;-69
2021/05/15 06:15:46;;;;;;;2.30;2.10;;;13.10;99.90;;;;;;5007283;28;20447;-70
2021/05/15 06:18:12;;;;;;;2.50;2.10;;;13.10;99.90;;;;;;5024192;28;20791;-70
2021/05/15 06:20:38;;;;;;;2.10;1.90;;;13.20;99.90;;;;;;5023889;28;20223;-70
2021/05/15 06:23:04;;;;;;;4.43;3.70;;;13.20;99.90;;;;;;5024145;28;20493;-71
2021/05/15 06:25:29;;;;;;;2.70;2.50;;;13.20;99.90;;;;;;5023413;28;20451;-70
2021/05/15 06:27:55;;;;;;;2.50;2.30;;;13.30;99.90;;;;;;5022821;28;20194;-71
2021/05/15 06:30:22;;;;;;;3.00;1.83;;;13.30;99.90;;;;;;5027634;28;20256;-71
2021/05/15 06:32:47;;;;;;;2.30;2.00;;;13.30;99.90;;;;;;5023422;28;20215;-69
2021/05/15 06:35:13;;;;;;;3.10;1.97;;;13.30;99.90;;;;;;5025214;28;20942;-70
2021/05/15 06:37:39;;;;;;;3.63;2.27;;;13.40;99.90;;;;;;5024538;28;20193;-71
2021/05/15 06:40:07;;;;;;;3.97;2.23;;;13.50;99.90;;;;;;5022488;28;20896;-71
2021/05/15 06:42:32;;;;;;;2.37;1.97;;;13.50;99.90;;;;;;5024963;28;20475;-69
2021/05/15 06:44:58;;;;;;;2.90;2.53;;;13.50;99.90;;;;;;5024598;28;20578;-69
2021/05/15 06:47:24;;;;;;;2.03;1.93;;;13.50;99.90;;;;;;5023388;28;20194;-70
2021/05/15 06:49:49;;;;;;;2.70;2.20;;;13.50;99.90;;;;;;5007026;28;20228;-71
2021/05/15 06:52:16;;;;;;;2.53;2.23;;;13.50;99.90;;;;;;5020844;28;20201;-70
2021/05/15 06:54:42;;;;;;;2.00;1.80;;;13.50;99.90;;;;;;5021875;28;20276;-70
2021/05/15 06:57:07;;;;;;;1.93;1.83;;;13.50;99.90;;;;;;5024767;28;20418;-70
2021/05/15 06:59:34;;;;;;;2.30;2.10;;;13.50;99.90;;;;;;5025634;28;20500;-71
2021/05/15 07:02:00;;;;;;;3.03;2.23;;;13.60;99.90;;;;;;5022236;28;20212;-71
2021/05/15 07:04:27;;;;;;;3.00;2.23;;;13.50;99.90;;;;;;5022854;28;20467;-71
2021/05/15 07:06:52;;;;;;;2.53;1.90;;;13.50;99.90;;;;;;5022386;28;20430;-70
2021/05/15 07:09:18;;;;;;;2.43;2.10;;;13.50;99.90;;;;;;5022782;28;20983;-70
2021/05/15 07:11:44;;;;;;;2.57;1.93;;;13.50;99.90;;;;;;5025237;28;20215;-70
2021/05/15 07:14:09;;;;;;;2.40;2.20;;;13.60;99.90;;;;;;5006729;28;20717;-70
2021/05/15 07:16:35;;;;;;;3.00;2.43;;;13.50;99.90;;;;;;5021875;28;20193;-70
2021/05/15 07:19:01;;;;;;;5.87;3.57;;;13.60;99.90;;;;;;5022061;28;20997;-70
2021/05/15 07:21:26;;;;;;;2.17;1.97;;;13.60;99.90;;;;;;5019295;28;20215;-71
2021/05/15 07:23:52;;;;;;;6.13;2.03;;;13.60;99.90;;;;;;5021506;28;20211;-70
2021/05/15 07:26:18;;;;;;;2.13;1.93;;;13.60;99.90;;;;;;5020849;28;20196;-71
2021/05/15 07:28:43;;;;;;;5.00;2.97;;;13.70;99.90;;;;;;5019360;28;20197;-70
2021/05/15 07:31:09;;;;;;;3.70;2.20;;;13.70;99.90;;;;;;5022687;28;20192;-69
2021/05/15 07:33:35;;;;;;;2.17;2.03;;;13.70;99.90;;;;;;5019868;28;20192;-71
2021/05/15 07:36:01;;;;;;;2.23;2.07;;;13.80;99.90;;;;;;5022389;28;20185;-71
2021/05/15 07:38:26;;;;;;;3.20;2.27;;;13.90;99.90;;;;;;5021137;28;20467;-70
2021/05/15 07:40:55;;;;;;;3.17;2.47;;;14.10;99.90;;;;;;5020503;28;20548;-70
2021/05/15 07:43:26;;;;;;;2.80;2.17;;;14.20;99.90;;;;;;5020145;28;20282;-71
2021/05/15 07:45:52;;;;;;;1.87;1.73;;;14.30;99.90;;;;;;5021739;28;20466;-70
2021/05/15 07:48:18;;;;;;;2.60;2.40;;;14.40;99.90;;;;;;5019783;28;20816;-71
2021/05/15 07:50:44;;;;;;;2.27;2.07;;;14.40;99.90;;;;;;5020198;28;20451;-71
2021/05/15 07:53:09;;;;;;;2.50;2.30;;;14.50;99.90;;;;;;5022212;28;20873;-71
2021/05/15 07:55:35;;;;;;;2.40;2.20;;;14.60;99.90;;;;;;5019470;28;20439;-70
2021/05/15 07:58:01;;;;;;;2.50;2.03;;;14.70;99.90;;;;;;5022031;28;20224;-70
2021/05/15 08:00:27;;;;;;;2.00;1.90;;;14.80;99.90;;;;;;5022955;28;20224;-71
2021/05/15 08:02:52;;;;;;;5.83;2.30;;;14.80;99.90;;;;;;5020206;28;20212;-70
2021/05/15 08:05:18;;;;;;;3.50;2.97;;;14.90;99.90;;;;;;5023259;28;20196;-71
2021/05/15 08:07:43;;;;;;;2.37;2.17;;;14.80;99.90;;;;;;5021053;28;20531;-71
2021/05/15 08:10:10;;;;;;;3.00;2.70;;;14.90;99.90;;;;;;5023767;28;20195;-69
2021/05/15 08:12:36;;;;;;;2.97;2.50;;;14.80;99.90;;;;;;5021719;28;20286;-71
2021/05/15 08:15:05;;;;;;;2.57;2.37;;;14.80;99.90;;;;;;5021857;28;20471;-71
2021/05/15 08:17:33;;;;;;;2.40;2.20;;;14.70;99.90;;;;;;5022421;28;20447;-70
2021/05/15 08:19:59;;;;;;;2.63;2.43;;;14.60;99.90;;;;;;5021339;28;20845;-70
2021/05/15 08:22:25;;;;;;;2.17;2.07;;;14.60;99.90;;;;;;5015640;28;20462;-70
2021/05/15 08:24:51;;;;;;;2.60;2.40;;;14.60;99.90;;;;;;4999729;28;20471;-70
2021/05/15 08:27:16;;;;;;;2.20;2.07;;;14.60;99.90;;;;;;5024333;28;20185;-71
2021/05/15 08:29:42;;;;;;;2.10;2.00;;;14.60;99.90;;;;;;5020247;28;20979;-69
2021/05/15 08:32:07;;;;;;;2.33;2.13;;;14.50;99.90;;;;;;5018764;28;20218;-73
2021/05/15 08:34:33;;;;;;;2.50;2.30;;;14.50;99.90;;;;;;5024555;28;20188;-72
2021/05/15 08:36:58;;;;;;;2.10;2.00;;;14.50;99.90;;;;;;5021178;28;20312;-71
2021/05/15 08:39:24;;;;;;;3.47;2.40;;;14.60;99.90;;;;;;5023982;28;20196;-72
2021/05/15 08:41:50;;;;;;;2.60;2.40;;;14.70;99.90;;;;;;5020774;28;21708;-71
2021/05/15 08:44:18;;;;;;;2.43;2.23;;;14.70;99.90;;;;;;5021158;28;20244;-71
2021/05/15 08:46:44;;;;;;;3.37;2.30;;;14.70;99.90;;;;;;5025074;28;20212;-72
2021/05/15 08:49:14;;;;;;;2.53;2.30;;;14.90;99.90;;;;;;5023335;28;20434;-71
2021/05/15 08:51:41;;;;;;;3.40;2.30;;;15.00;99.90;;;;;;5021423;28;20459;-71
2021/05/15 08:54:08;;;;;;;2.43;2.23;;;15.10;99.90;;;;;;5015591;28;20862;-70
2021/05/15 08:56:34;;;;;;;2.30;2.10;;;15.20;99.90;;;;;;5022412;28;20446;-71
2021/05/15 08:58:59;;;;;;;4.30;2.93;;;15.20;99.90;;;;;;5023512;28;20904;-71
2021/05/15 09:01:25;;;;;;;3.47;2.50;;;15.20;99.90;;;;;;5018322;28;20662;-71
2021/05/15 09:03:51;;;;;;;2.50;2.40;;;15.10;99.90;;;;;;5017328;28;20212;-71
2021/05/15 09:06:16;;;;;;;3.03;2.50;;;15.10;99.90;;;;;;5020876;28;20705;-71
2021/05/15 09:08:48;;;;;;;2.73;2.50;;;15.10;99.90;;;;;;5018106;28;20444;-71
2021/05/15 09:11:15;;;;;;;2.63;2.37;;;15.10;99.90;;;;;;5001492;28;20725;-70
2021/05/15 09:13:53;;;;;;;3.60;2.60;;;15.00;99.90;;;;;;5022522;28;21270;-72
2021/05/15 09:16:19;;;;;;;2.80;2.57;;;15.20;99.90;;;;;;5023468;28;20431;-71
2021/05/15 09:18:45;;;;;;;3.13;2.93;;;15.20;99.90;;;;;;5020459;28;20894;-72
2021/05/15 09:21:21;;;;;;;3.23;2.73;;;15.20;99.90;;;;;;5020537;28;20490;-70
2021/05/15 09:23:49;;;;;;;3.10;2.80;;;15.30;99.90;;;;;;5023095;28;20251;-70
2021/05/15 09:26:21;;;;;;;2.80;2.60;;;15.50;99.90;;;;;;5020980;28;20430;-71
2021/05/15 09:28:48;;;;;;;4.00;2.50;;;15.70;99.90;;;;;;5019190;28;20506;-71
2021/05/15 09:31:24;;;;;;;2.50;2.40;;;15.80;99.90;;;;;;5022011;28;20519;-71
2021/05/15 09:33:56;;;;;;;2.80;2.60;;;15.80;99.90;;;;;;5019995;28;20427;-71
2021/05/15 09:36:29;;;;;;;2.67;2.40;;;15.70;99.90;;;;;;5019155;28;20467;-71
2021/05/15 09:39:12;;;;;;;2.53;2.33;;;15.80;99.90;;;;;;5021109;28;20435;-70
2021/05/15 09:41:49;;;;;;;4.03;2.60;;;15.70;99.90;;;;;;5020554;28;20458;-72
2021/05/15 09:44:20;;;;;;;3.23;2.50;;;15.70;99.90;;;;;;5017912;28;20481;-71
2021/05/15 09:46:47;;;;;;;3.80;2.50;;;15.60;99.90;;;;;;5022592;28;20418;-71
2021/05/15 09:49:14;;;;;;;2.80;2.60;;;15.60;99.90;;;;;;5017791;28;20441;-72
2021/05/15 09:51:53;;;;;;;2.37;2.23;;;15.70;99.90;;;;;;5018688;28;20494;-70
2021/05/15 09:54:21;;;;;;;2.60;2.40;;;15.70;99.90;;;;;;5022196;28;20427;-70
2021/05/15 09:57:09;;;;;;;2.80;2.60;;;15.70;99.90;;;;;;5017306;28;20543;-71
2021/05/15 09:59:40;;;;;;;3.67;2.60;;;15.80;99.90;;;;;;5020817;28;20514;-70
2021/05/15 10:02:11;;;;;;;2.20;2.10;;;15.90;99.90;;;;;;5021551;28;20500;-71
2021/05/15 10:04:39;;;;;;;2.83;2.63;;;15.90;99.90;;;;;;5018785;28;20468;-71
2021/05/15 10:07:32;;;;;;;3.20;2.60;;;15.90;99.90;;;;;;5002425;28;20436;-71
2021/05/15 10:10:03;;;;;;;4.77;2.60;;;16.00;99.90;;;;;;5021578;28;20435;-71
2021/05/15 10:12:30;;;;;;;2.20;2.10;;;16.10;99.90;;;;;;5004475;28;20443;-70
2021/05/15 10:14:56;;;;;;;2.50;2.30;;;16.10;99.90;;;;;;5021070;28;20427;-72
2021/05/15 10:17:22;;;;;;;2.70;2.50;;;16.20;99.90;;;;;;5021258;28;20435;-71
2021/05/15 10:19:48;;;;;;;3.60;2.50;;;16.20;99.90;;;;;;5018360;28;20477;-70
2021/05/15 10:22:13;;;;;;;2.57;2.37;;;16.30;99.90;;;;;;5020888;28;20212;-71
2021/05/15 10:24:45;;;;;;;4.67;3.07;;;16.50;99.90;;;;;;5006258;28;20462;-71
2021/05/15 10:27:13;;;;;;;5.87;3.03;;;16.60;99.90;;;;;;5019677;28;20195;-71
2021/05/15 10:29:46;;;;;;;3.57;2.60;;;16.70;99.90;;;;;;5018229;28;20431;-71
2021/05/15 10:32:14;;;;;;;2.90;2.70;;;16.90;99.90;;;;;;5023146;28;20463;-71
2021/05/15 10:34:45;;;;;;;3.57;3.27;;;17.10;99.90;;;;;;5021649;28;20430;-71
2021/05/15 10:37:21;;;;;;;3.00;2.80;;;17.10;99.90;;;;;;5020337;28;20489;-71
2021/05/15 10:39:50;;;;;;;4.23;2.90;;;16.90;99.90;;;;;;5020125;28;20427;-71
2021/05/15 10:42:30;;;;;;;3.13;2.93;;;16.80;99.90;;;;;;5019464;28;20553;-71
2021/05/15 10:44:56;;;;;;;3.00;2.77;;;16.80;99.90;;;;;;5016749;28;20553;-71
2021/05/15 10:47:22;;;;;;;3.57;3.03;;;16.70;99.90;;;;;;5018206;28;20440;-70
2021/05/15 10:49:49;;;;;;;2.53;2.30;;;16.50;99.90;;;;;;5021572;28;20196;-70
2021/05/15 10:52:17;;;;;;;3.20;2.90;;;16.50;99.90;;;;;;5021642;28;20455;-70
2021/05/15 10:54:50;;;;;;;6.80;3.03;;;16.50;99.90;;;;;;5022043;28;20411;-70
2021/05/15 10:57:24;;;;;;;4.37;3.97;;;16.50;99.90;;;;;;5005447;28;20477;-70
2021/05/15 11:00:00;;;;;;;3.57;2.97;;;16.60;99.90;;;;;;5022510;28;20447;-70
2021/05/15 11:02:40;;;;;;;5.30;2.80;;;16.70;99.90;;;;;;5021758;28;20508;-70
2021/05/15 11:05:21;;;;;;;3.40;2.70;;;16.70;99.90;;;;;;5022086;28;20556;-72
2021/05/15 11:07:47;;;;;;;3.00;2.80;;;16.70;99.90;;;;;;5021176;28;20445;-71
2021/05/15 11:10:18;;;;;;;3.03;2.83;;;16.60;99.90;;;;;;5023732;28;20415;-71
2021/05/15 11:12:52;;;;;;;3.23;2.93;;;16.60;99.90;;;;;;5022547;28;20259;-71
2021/05/15 11:15:22;;;;;;;5.13;2.80;;;16.70;99.90;;;;;;5018498;28;20493;-71
2021/05/15 11:18:00;;;;;;;3.13;2.60;;;16.60;99.90;;;;;;5025491;28;20431;-71
2021/05/15 11:20:26;;;;;;;2.80;2.60;;;16.60;99.90;;;;;;5024784;28;20462;-71
2021/05/15 11:22:53;;;;;;;19.60;15.63;;;16.60;99.90;;;;;;5023068;28;20484;-71
2021/05/15 11:25:29;;;;;;;3.37;2.90;;;16.70;99.90;;;;;;5023240;28;20189;-71
2021/05/15 11:27:57;;;;;;;3.77;2.73;;;16.60;99.90;;;;;;5024345;28;20423;-71
2021/05/15 11:30:28;;;;;;;3.30;3.00;;;16.60;99.90;;;;;;5022447;28;20423;-71
2021/05/15 11:33:08;;;;;;;3.03;2.83;;;16.60;99.90;;;;;;5022440;28;21288;-70
2021/05/15 11:35:45;;;;;;;2.80;2.60;;;16.60;99.90;;;;;;5020214;28;20502;-70
2021/05/15 11:38:25;;;;;;;3.03;2.50;;;16.70;99.90;;;;;;5022516;28;20472;-71
2021/05/15 11:40:50;;;;;;;3.53;2.63;;;16.70;99.90;;;;;;5023413;28;20484;-71
2021/05/15 11:43:22;;;;;;;2.90;2.60;;;16.80;99.90;;;;;;5020108;28;20506;-71
2021/05/15 11:45:52;;;;;;;2.80;2.60;;;16.80;99.90;;;;;;5022468;28;20188;-71
2021/05/15 11:48:26;;;;;;;7.97;2.53;;;16.70;99.90;;;;;;5022241;28;20435;-71
2021/05/15 11:50:58;;;;;;;2.90;2.70;;;16.80;99.90;;;;;;5023248;28;20434;-72
2021/05/15 11:53:23;;;;;;;3.50;2.70;;;16.90;99.90;;;;;;5000787;28;20528;-70
2021/05/15 11:55:51;;;;;;;2.67;2.47;;;17.00;99.90;;;;;;5022392;28;20439;-71
2021/05/15 11:58:17;;;;;;;3.43;2.40;;;17.00;99.90;;;;;;5020262;28;20466;-70
2021/05/15 12:00:43;;;;;;;3.80;2.97;;;17.00;99.90;;;;;;5008356;28;20976;-68
2021/05/15 12:03:11;;;;;;;2.87;2.67;;;17.10;99.90;;;;;;5013876;28;20261;-70
2021/05/15 12:05:37;;;;;;;3.13;2.80;;;17.20;99.90;;;;;;5018089;28;20509;-70
2021/05/15 12:08:12;;;;;;;3.30;2.60;;;17.20;99.90;;;;;;5014435;28;20952;-69
2021/05/15 12:10:39;;;;;;;4.03;3.63;;;17.30;99.90;;;;;;5012155;28;20184;-71
2021/05/15 12:13:05;;;;;;;5.93;3.20;;;17.30;99.90;;;;;;5009928;28;20491;-70
2021/05/15 12:15:31;;;;;;;3.20;2.90;;;17.50;99.90;;;;;;5015548;28;20707;-71
2021/05/15 12:17:58;;;;;;;3.70;3.40;;;17.90;99.90;;;;;;5016736;28;20439;-73
2021/05/15 12:20:31;;;;;;;5.43;4.10;;;18.10;99.90;;;;;;5013738;28;20448;-73
2021/05/15 12:23:16;;;;;;;2.80;2.60;;;18.20;99.90;;;;;;5013410;28;21430;-72
2021/05/15 12:26:00;;;;;;;2.80;2.60;;;18.10;99.90;;;;;;5017010;28;20443;-71
2021/05/15 12:28:31;;;;;;;6.23;2.90;;;18.00;99.90;;;;;;5012231;28;20443;-72
2021/05/15 12:30:59;;;;;;;2.97;2.77;;;17.90;99.90;;;;;;4993542;28;20534;-73
2021/05/15 12:33:26;;;;;;;4.20;2.73;;;17.80;99.90;;;;;;4997841;28;20471;-72
2021/05/15 12:35:59;;;;;;;3.60;3.00;;;17.60;99.90;;;;;;5012581;28;20452;-71
2021/05/15 12:38:25;;;;;;;2.97;2.77;;;17.40;99.90;;;;;;5014621;28;20512;-73
2021/05/15 12:40:50;;;;;;;3.17;2.90;;;17.10;99.90;;;;;;5014922;28;21225;-71
2021/05/15 12:43:16;;;;;;;3.93;2.90;;;17.00;99.90;;;;;;5011548;28;20853;-69
2021/05/15 12:45:43;;;;;;;3.10;2.90;;;17.00;99.90;;;;;;5015996;28;20340;-70
2021/05/15 12:48:35;;;;;;;2.40;2.20;;;16.80;99.90;;;;;;5014095;28;20631;-70
2021/05/15 12:51:02;;;;;;;3.17;2.97;;;16.70;99.90;;;;;;5009632;28;21068;-73
2021/05/15 12:53:28;;;;;;;2.73;2.53;;;16.70;99.90;;;;;;5018002;28;20454;-71
2021/05/15 12:55:54;;;;;;;2.80;2.60;;;16.60;99.90;;;;;;5012461;28;20458;-71